Time;durP1;ratioP1;P1;durP2;ratioP2;P2;SDS_P1;SDS_P2;PMS_P1;PMS_P2;Temp;Humidity;BMP_temperature;BMP_pressure;BME280_temperature;BME280_humidity;BME280_pressure;Samples;Min_cycle;Max_cycle;Signal;HPM_P1;HPM_P2
2021/03/15 00:01:47;;;;;;;;;;;9.30;97.30;;;;;;5095092;28;19930;-67
2021/03/15 00:04:13;;;;;;;;;;;9.20;97.30;;;;;;5094697;28;19928;-67
2021/03/15 00:06:40;;;;;;;;;;;9.20;97.40;;;;;;5091604;28;19932;-67
2021/03/15 00:09:07;;;;;;;;;;;9.20;97.40;;;;;;5094636;28;19934;-67
2021/03/15 00:11:35;;;;;;;;;;;9.20;97.40;;;;;;5094308;28;20304;-67
2021/03/15 00:14:02;;;;;;;;;;;9.20;97.50;;;;;;5089992;28;20354;-67
2021/03/15 00:16:28;;;;;;;;;;;9.10;97.40;;;;;;5089610;28;19923;-67
2021/03/15 00:18:54;;;;;;;;;;;9.10;97.50;;;;;;5094542;28;19938;-67
2021/03/15 00:21:20;;;;;;;;;;;9.10;97.50;;;;;;5093813;28;20343;-67
2021/03/15 00:23:48;;;;;;;;;;;9.10;97.60;;;;;;5094583;28;19942;-67
2021/03/15 00:26:14;;;;;;;;;;;9.00;97.70;;;;;;5094093;28;19939;-67
2021/03/15 00:28:40;;;;;;;;;;;9.00;97.80;;;;;;5093829;28;19924;-67
2021/03/15 00:31:06;;;;;;;;;;;9.00;97.90;;;;;;5094085;28;19924;-67
2021/03/15 00:33:32;;;;;;;;;;;9.00;97.80;;;;;;5093906;28;19924;-67
2021/03/15 00:35:59;;;;;;;;;;;9.00;97.70;;;;;;5094494;28;19996;-67
2021/03/15 00:38:25;;;;;;;;;;;9.00;97.80;;;;;;5093767;28;20271;-67
2021/03/15 00:40:52;;;;;;;;;;;9.00;97.80;;;;;;5093930;28;20270;-67
2021/03/15 00:43:18;;;;;;;;;;;8.90;97.70;;;;;;5094115;28;19924;-67
2021/03/15 00:45:44;;;;;;;;;;;8.90;97.80;;;;;;5093482;28;19986;-67
2021/03/15 00:48:11;;;;;;;;;;;8.90;97.70;;;;;;5094090;28;20250;-67
2021/03/15 00:50:41;;;;;;;;;;;8.90;97.80;;;;;;5093184;28;19924;-68
2021/03/15 00:53:08;;;;;;;;;;;8.90;97.70;;;;;;5074951;28;19929;-68
2021/03/15 00:55:34;;;;;;;;;;;8.90;97.70;;;;;;5082589;28;19924;-65
2021/03/15 00:58:02;;;;;;;;;;;8.90;97.80;;;;;;5093603;28;19931;-68
2021/03/15 01:00:29;;;;;;;;;;;9.00;97.80;;;;;;5093222;28;19936;-67
2021/03/15 01:02:55;;;;;;;;;;;9.00;97.80;;;;;;5094061;28;20027;-67
2021/03/15 01:05:22;;;;;;;;;;;9.00;97.80;;;;;;5093507;28;19977;-68
2021/03/15 01:07:49;;;;;;;;;;;8.90;97.70;;;;;;5073011;28;19958;-67
2021/03/15 01:10:15;;;;;;;;;;;8.90;97.90;;;;;;5073226;28;19932;-67
2021/03/15 01:12:41;;;;;;;;;;;8.90;97.80;;;;;;5072941;28;20001;-67
2021/03/15 01:15:10;;;;;;;;;;;8.90;98.00;;;;;;5073173;28;19942;-68
2021/03/15 01:17:36;;;;;;;;;;;8.80;97.80;;;;;;5072667;28;20358;-67
2021/03/15 01:20:03;;;;;;;;;;;8.90;97.80;;;;;;5073050;28;19924;-67
2021/03/15 01:22:30;;;;;;;;;;;8.90;97.70;;;;;;5071027;28;20373;-68
2021/03/15 01:24:56;;;;;;;;;;;8.90;97.80;;;;;;5069763;28;19986;-68
2021/03/15 01:27:22;;;;;;;;;;;8.80;97.80;;;;;;5072959;28;19925;-67
2021/03/15 01:29:50;;;;;;;;;;;8.90;97.90;;;;;;5072573;28;19924;-68
2021/03/15 01:32:17;;;;;;;;;;;8.90;97.80;;;;;;5073081;28;19982;-67
2021/03/15 01:34:44;;;;;;;;;;;8.80;98.00;;;;;;5072071;28;19924;-67
2021/03/15 01:37:10;;;;;;;;;;;8.90;98.00;;;;;;5073024;28;19925;-68
2021/03/15 01:39:36;;;;;;;;;;;8.80;97.90;;;;;;5072328;28;19969;-68
2021/03/15 01:42:03;;;;;;;;;;;8.80;98.20;;;;;;5072813;28;19935;-67
2021/03/15 01:44:29;;;;;;;;;;;8.90;98.10;;;;;;5072451;28;19935;-67
2021/03/15 01:46:55;;;;;;;;;;;8.90;98.10;;;;;;5072672;28;19925;-67
2021/03/15 01:49:22;;;;;;;;;;;8.80;98.00;;;;;;5072617;28;19939;-68
2021/03/15 01:51:49;;;;;;;;;;;8.90;98.10;;;;;;5062645;28;19935;-67
2021/03/15 01:54:15;;;;;;;;;;;8.90;97.90;;;;;;5053821;28;19929;-67
2021/03/15 01:56:42;;;;;;;;;;;8.90;97.90;;;;;;5070972;28;20355;-67
2021/03/15 01:59:08;;;;;;;;;;;8.90;98.00;;;;;;5072324;28;19935;-67
2021/03/15 02:01:37;;;;;;;;;;;8.80;98.20;;;;;;5072135;28;19974;-67
2021/03/15 02:04:03;;;;;;;;;;;8.80;98.20;;;;;;5086083;28;19948;-67
2021/03/15 02:06:30;;;;;;;;;;;8.80;98.30;;;;;;5091439;28;19924;-68
2021/03/15 02:08:56;;;;;;;;;;;8.90;98.20;;;;;;5092569;28;19928;-67
2021/03/15 02:11:27;;;;;;;;;;;8.90;98.10;;;;;;5092739;28;19935;-68
2021/03/15 02:14:02;;;;;;;;;;;8.90;98.20;;;;;;5092297;28;20281;-68
2021/03/15 02:16:35;;;;;;;;;;;8.90;98.20;;;;;;5087850;28;20011;-67
2021/03/15 02:19:07;;;;;;;;;;;8.90;98.20;;;;;;5092638;28;20397;-67
2021/03/15 02:21:58;;;;;;;;;;;8.90;98.20;;;;;;5092222;28;20023;-67
2021/03/15 02:24:28;;;;;;;;;;;8.90;98.10;;;;;;5092540;28;20282;-67
2021/03/15 02:27:11;;;;;;;;;;;8.80;98.10;;;;;;5092038;28;19989;-67
2021/03/15 02:29:48;;;;;;;;;;;8.90;98.20;;;;;;5091915;28;20036;-67
2021/03/15 02:32:23;;;;;;;;;;;8.90;98.10;;;;;;5092456;28;20182;-67
2021/03/15 02:34:57;;;;;;;;;;;8.80;98.10;;;;;;5091780;28;20350;-67
2021/03/15 02:37:26;;;;;;;;;;;8.80;98.20;;;;;;5092488;28;20262;-67
2021/03/15 02:39:55;;;;;;;;;;;8.80;98.10;;;;;;5091977;28;19924;-67
2021/03/15 02:42:22;;;;;;;;;;;8.90;98.10;;;;;;5086383;28;19924;-67
2021/03/15 02:44:50;;;;;;;;;;;8.90;98.00;;;;;;5090365;28;19931;-68
2021/03/15 02:47:19;;;;;;;;;;;8.90;98.10;;;;;;5092087;28;19928;-67
2021/03/15 02:49:48;;;;;;;;;;;8.80;98.00;;;;;;5091921;28;19928;-67
2021/03/15 02:52:15;;;;;;;;;;;8.80;98.10;;;;;;5080505;28;19928;-67
2021/03/15 02:54:43;;;;;;;;;;;8.80;98.20;;;;;;5063909;28;20348;-68
2021/03/15 02:57:10;;;;;;;;;;;8.80;98.20;;;;;;5072028;28;20343;-67
2021/03/15 02:59:37;;;;;;;;;;;8.80;98.10;;;;;;5071639;28;19931;-67
2021/03/15 03:02:04;;;;;;;;;;;8.90;98.10;;;;;;5084921;28;19924;-67
2021/03/15 03:04:31;;;;;;;;;;;8.90;98.10;;;;;;5092153;28;19924;-67
2021/03/15 03:06:57;;;;;;;;;;;8.80;98.00;;;;;;5089129;28;19925;-68
2021/03/15 03:09:25;;;;;;;;;;;8.80;98.00;;;;;;5076817;28;19929;-67
2021/03/15 03:11:52;;;;;;;;;;;8.80;97.80;;;;;;5071534;28;19924;-67
2021/03/15 03:14:18;;;;;;;;;;;8.90;98.00;;;;;;5072100;28;20023;-68
2021/03/15 03:16:45;;;;;;;;;;;8.90;97.90;;;;;;5069327;28;19932;-68
2021/03/15 03:19:15;;;;;;;;;;;8.80;97.90;;;;;;5073391;28;19924;-68
2021/03/15 03:21:42;;;;;;;;;;;8.90;98.00;;;;;;5075046;28;19925;-68
2021/03/15 03:24:09;;;;;;;;;;;8.80;98.00;;;;;;5075431;28;19924;-68
2021/03/15 03:26:37;;;;;;;;;;;8.90;98.10;;;;;;5074785;28;19925;-68
2021/03/15 03:29:04;;;;;;;;;;;8.80;98.00;;;;;;5075029;28;19932;-65
2021/03/15 03:31:31;;;;;;;;;;;8.90;98.10;;;;;;5075192;28;20279;-67
2021/03/15 03:33:58;;;;;;;;;;;8.80;98.10;;;;;;5068371;28;19990;-67
2021/03/15 03:36:25;;;;;;;;;;;8.90;98.10;;;;;;5072885;28;19936;-67
2021/03/15 03:38:51;;;;;;;;;;;8.90;98.30;;;;;;5074677;28;19950;-68
2021/03/15 03:41:17;;;;;;;;;;;8.90;98.20;;;;;;5069036;28;19925;-68
2021/03/15 03:43:44;;;;;;;;;;;8.90;98.20;;;;;;5054833;28;19925;-68
2021/03/15 03:46:12;;;;;;;;;;;8.90;98.20;;;;;;5054884;28;20367;-67
2021/03/15 03:48:39;;;;;;;;;;;8.90;98.30;;;;;;5054279;28;19925;-67
2021/03/15 03:51:05;;;;;;;;;;;8.90;98.20;;;;;;5054709;28;19935;-67
2021/03/15 03:53:36;;;;;;;;;;;8.90;98.20;;;;;;5044442;28;19925;-66
2021/03/15 03:56:06;;;;;;;;;;;8.90;98.20;;;;;;5048106;28;19925;-68
2021/03/15 03:58:37;;;;;;;;;;;8.90;98.20;;;;;;5054657;28;19929;-66
2021/03/15 04:01:05;;;;;;;;;;;9.00;98.00;;;;;;5054244;28;20315;-66
2021/03/15 04:03:31;;;;;;;;;;;9.00;97.90;;;;;;5054741;28;19955;-68
2021/03/15 04:05:59;;;;;;;;;;;9.00;98.00;;;;;;5053935;28;19924;-68
2021/03/15 04:08:27;;;;;;;;;;;8.90;97.80;;;;;;5049867;28;19983;-67
2021/03/15 04:10:54;;;;;;;;;;;8.90;97.80;;;;;;5054218;28;20327;-68
2021/03/15 04:13:23;;;;;;;;;;;8.90;97.90;;;;;;5054678;28;19993;-68
2021/03/15 04:15:49;;;;;;;;;;;8.80;98.00;;;;;;5041422;28;19925;-68
2021/03/15 04:18:18;;;;;;;;;;;8.80;98.00;;;;;;5054470;28;19928;-68
2021/03/15 04:20:45;;;;;;;;;;;8.80;98.00;;;;;;5053755;28;20079;-67
2021/03/15 04:23:13;;;;;;;;;;;8.80;98.00;;;;;;5054202;28;19932;-66
2021/03/15 04:25:40;;;;;;;;;;;8.70;98.00;;;;;;5054352;28;20015;-67
2021/03/15 04:28:07;;;;;;;;;;;8.70;97.90;;;;;;5053799;28;20459;-67
2021/03/15 04:30:34;;;;;;;;;;;8.70;98.00;;;;;;5053612;28;19936;-67
2021/03/15 04:33:01;;;;;;;;;;;8.70;98.00;;;;;;5053735;28;19998;-67
2021/03/15 04:35:30;;;;;;;;;;;8.70;98.10;;;;;;5054014;28;19978;-66
2021/03/15 04:37:57;;;;;;;;;;;8.70;98.20;;;;;;5053281;28;19924;-66
2021/03/15 04:40:24;;;;;;;;;;;8.70;98.00;;;;;;5053248;28;19958;-66
2021/03/15 04:42:51;;;;;;;;;;;8.70;98.10;;;;;;5071734;28;20623;-66
2021/03/15 04:45:18;;;;;;;;;;;8.70;98.10;;;;;;5073719;28;19924;-66
2021/03/15 04:47:44;;;;;;;;;;;8.70;98.20;;;;;;5073245;28;19925;-67
2021/03/15 04:50:12;;;;;;;;;;;8.60;98.10;;;;;;5073561;28;20272;-67
2021/03/15 04:52:42;;;;;;;;;;;8.70;98.20;;;;;;5070574;28;19978;-67
2021/03/15 04:55:09;;;;;;;;;;;8.60;98.10;;;;;;5079455;28;19925;-67
2021/03/15 04:57:36;;;;;;;;;;;8.60;98.30;;;;;;5073501;28;19938;-67
2021/03/15 05:00:05;;;;;;;;;;;8.60;98.20;;;;;;5072978;28;20026;-66
2021/03/15 05:02:32;;;;;;;;;;;8.60;98.20;;;;;;5073357;28;19995;-66
2021/03/15 05:04:59;;;;;;;;;;;8.50;98.10;;;;;;5072738;28;20396;-66
2021/03/15 05:07:25;;;;;;;;;;;8.50;98.10;;;;;;5064506;28;20236;-66
2021/03/15 05:09:53;;;;;;;;;;;8.60;98.10;;;;;;5071547;28;19924;-67
2021/03/15 05:12:19;;;;;;;;;;;8.60;98.00;;;;;;5073185;28;19928;-67
2021/03/15 05:14:46;;;;;;;;;;;8.60;98.00;;;;;;5070910;28;19928;-67
2021/03/15 05:17:12;;;;;;;;;;;8.60;98.00;;;;;;5065916;28;20373;-66
2021/03/15 05:19:40;;;;;;;;;;;8.60;97.90;;;;;;5072611;28;20003;-67
2021/03/15 05:22:07;;;;;;;;;;;8.60;98.00;;;;;;5072644;28;20365;-66
2021/03/15 05:24:35;;;;;;;;;;;8.60;98.00;;;;;;5071593;28;20353;-67
2021/03/15 05:27:02;;;;;;;;;;;8.60;98.00;;;;;;5072471;28;19935;-67
2021/03/15 05:29:30;;;;;;;;;;;8.60;98.00;;;;;;5073102;28;20015;-67
2021/03/15 05:31:57;;;;;;;;;;;8.60;97.90;;;;;;5070955;28;20406;-66
2021/03/15 05:34:24;;;;;;;;;;;8.60;97.90;;;;;;5070889;28;20023;-65
2021/03/15 05:36:50;;;;;;;;;;;8.60;98.30;;;;;;5070579;28;19938;-67
2021/03/15 05:39:17;;;;;;;;;;;8.60;97.90;;;;;;5070897;28;20023;-65
2021/03/15 05:41:49;;;;;;;;;;;8.60;97.80;;;;;;5070225;28;19925;-66
2021/03/15 05:44:25;;;;;;;;;;;8.60;97.80;;;;;;5078893;28;19924;-66
2021/03/15 05:47:09;;;;;;;;;;;8.60;97.80;;;;;;5069730;28;19933;-67
2021/03/15 05:49:47;;;;;;;;;;;8.60;97.80;;;;;;5056223;28;19935;-67
2021/03/15 05:52:19;;;;;;;;;;;8.70;97.60;;;;;;5055862;28;20375;-66
2021/03/15 05:54:54;;;;;;;;;;;8.70;97.30;;;;;;5051375;28;20298;-67
2021/03/15 05:57:34;;;;;;;;;;;8.70;97.30;;;;;;5066537;28;19924;-67
2021/03/15 06:00:05;;;;;;;;;;;8.80;97.30;;;;;;5092686;28;19934;-66
2021/03/15 06:02:40;;;;;;;;;;;8.70;97.50;;;;;;5071565;28;19928;-66
2021/03/15 06:05:19;;;;;;;;;;;8.70;97.40;;;;;;5066719;28;19965;-66
2021/03/15 06:07:47;;;;;;;;;;;8.70;97.50;;;;;;5052619;28;20362;-66
2021/03/15 06:10:15;;;;;;;;;;;8.70;97.60;;;;;;5052377;28;19925;-66
2021/03/15 06:12:46;;;;;;;;;;;8.70;97.40;;;;;;5052458;28;20082;-66
2021/03/15 06:15:14;;;;;;;;;;;8.70;97.30;;;;;;5052403;28;19925;-66
2021/03/15 06:17:41;;;;;;;;;;;8.80;97.10;;;;;;5052711;28;19935;-66
2021/03/15 06:20:08;;;;;;;;;;;8.80;96.90;;;;;;5052008;28;19924;-66
2021/03/15 06:22:34;;;;;;;;;;;8.80;96.90;;;;;;5052324;28;20180;-66
2021/03/15 06:25:01;;;;;;;;;;;8.80;96.90;;;;;;5052237;28;20287;-66
2021/03/15 06:27:28;;;;;;;;;;;8.80;96.90;;;;;;5052420;28;19933;-66
2021/03/15 06:29:56;;;;;;;;;;;8.80;96.70;;;;;;5052496;28;19928;-67
2021/03/15 06:32:23;;;;;;;;;;;8.80;96.80;;;;;;5052010;28;19925;-67
2021/03/15 06:34:50;;;;;;;;;;;8.80;96.80;;;;;;5052197;28;19929;-66
2021/03/15 06:37:16;;;;;;;;;;;8.80;96.80;;;;;;5051909;28;19924;-66
2021/03/15 06:39:43;;;;;;;;;;;8.90;96.60;;;;;;5052423;28;19929;-66
2021/03/15 06:42:11;;;;;;;;;;;8.90;96.20;;;;;;5051744;28;20092;-66
2021/03/15 06:44:39;;;;;;;;;;;8.90;96.50;;;;;;5052462;28;19924;-67
2021/03/15 06:47:05;;;;;;;;;;;8.80;96.50;;;;;;5051773;28;20360;-67
2021/03/15 06:49:32;;;;;;;;;;;8.80;96.10;;;;;;5052248;28;19924;-67
2021/03/15 06:52:03;;;;;;;;;;;8.80;96.30;;;;;;5052422;28;19935;-67
2021/03/15 06:54:29;;;;;;;;;;;8.80;96.40;;;;;;5062613;28;20992;-67
2021/03/15 06:57:10;;;;;;;;;;;8.80;96.30;;;;;;5076109;28;19931;-67
2021/03/15 06:59:44;;;;;;;;;;;8.80;96.30;;;;;;5053558;28;20027;-66
2021/03/15 07:02:11;;;;;;;;;;;8.90;96.00;;;;;;5055317;28;19925;-66
2021/03/15 07:04:38;;;;;;;;;;;8.90;95.90;;;;;;5054241;28;20442;-66
2021/03/15 07:07:04;;;;;;;;;;;8.90;95.80;;;;;;5055436;28;19935;-65
2021/03/15 07:09:33;;;;;;;;;;;9.00;95.50;;;;;;5055174;28;19929;-66
2021/03/15 07:12:01;;;;;;;;;;;9.00;95.50;;;;;;5055295;28;19950;-66
2021/03/15 07:14:27;;;;;;;;;;;8.90;95.70;;;;;;5055033;28;19925;-66
2021/03/15 07:16:57;;;;;;;;;;;8.90;95.50;;;;;;5055789;28;20331;-66
2021/03/15 07:19:23;;;;;;;;;;;9.00;95.30;;;;;;5055315;28;19924;-66
2021/03/15 07:21:50;;;;;;;;;;;9.00;95.40;;;;;;5055799;28;20305;-65
2021/03/15 07:24:17;;;;;;;;;;;9.00;95.50;;;;;;5055281;28;19999;-66
2021/03/15 07:26:44;;;;;;;;;;;9.00;95.50;;;;;;5055517;28;19925;-66
2021/03/15 07:29:11;;;;;;;;;;;9.10;95.50;;;;;;5055639;28;20343;-66
2021/03/15 07:31:38;;;;;;;;;;;9.00;95.50;;;;;;5055201;28;19931;-66
2021/03/15 07:34:11;;;;;;;;;;;9.10;95.50;;;;;;5055398;28;20394;-66
2021/03/15 07:36:47;;;;;;;;;;;9.10;95.50;;;;;;5054683;28;19924;-67
2021/03/15 07:39:14;;;;;;;;;;;9.20;95.40;;;;;;5055528;28;19935;-67
2021/03/15 07:41:41;;;;;;;;;;;9.20;95.10;;;;;;5074837;28;20355;-66
2021/03/15 07:44:15;;;;;;;;;;;9.20;95.20;;;;;;5075345;28;19931;-67
2021/03/15 07:46:42;;;;;;;;;;;9.30;95.20;;;;;;5074999;28;20358;-67
2021/03/15 07:49:19;;;;;;;;;;;9.30;95.10;;;;;;5075148;28;19970;-67
2021/03/15 07:51:51;;;;;;;;;;;9.30;95.20;;;;;;5074717;28;20842;-66
2021/03/15 07:54:22;;;;;;;;;;;9.30;95.10;;;;;;5088525;28;19924;-66
2021/03/15 07:56:49;;;;;;;;;;;9.40;95.20;;;;;;5074787;28;19932;-66
2021/03/15 07:59:15;;;;;;;;;;;9.40;95.10;;;;;;5093335;28;19928;-65
2021/03/15 08:01:42;;;;;;;;;;;9.40;95.20;;;;;;5094800;28;19949;-66
2021/03/15 08:04:08;;;;;;;;;;;9.40;95.30;;;;;;5094814;28;19924;-65
2021/03/15 08:06:34;;;;;;;;;;;9.50;95.10;;;;;;5094063;28;20044;-66
2021/03/15 08:09:01;;;;;;;;;;;9.50;95.20;;;;;;5095087;28;19935;-66
2021/03/15 08:11:28;;;;;;;;;;;9.50;95.40;;;;;;5094555;28;19924;-66
2021/03/15 08:13:55;;;;;;;;;;;9.50;95.00;;;;;;5094991;28;19940;-66
2021/03/15 08:16:22;;;;;;;;;;;9.50;95.00;;;;;;5094929;28;20011;-67
2021/03/15 08:18:49;;;;;;;;;;;9.50;95.10;;;;;;5094181;28;20051;-67
2021/03/15 08:21:18;;;;;;;;;;;9.60;95.20;;;;;;5093868;28;19928;-66
2021/03/15 08:23:45;;;;;;;;;;;9.60;94.70;;;;;;5094452;28;20375;-66
2021/03/15 08:26:13;;;;;;;;;;;9.70;94.80;;;;;;5094653;28;19924;-66
2021/03/15 08:28:40;;;;;;;;;;;9.70;94.90;;;;;;5094043;28;19923;-68
2021/03/15 08:31:12;;;;;;;;;;;9.70;94.50;;;;;;5074170;28;19924;-67
2021/03/15 08:33:39;;;;;;;;;;;9.80;93.90;;;;;;5073955;28;19932;-67
2021/03/15 08:36:05;;;;;;;;;;;9.80;94.10;;;;;;5074233;28;19935;-67
2021/03/15 08:38:32;;;;;;;;;;;9.90;94.10;;;;;;5073772;28;19962;-67
2021/03/15 08:41:00;;;;;;;;;;;9.90;94.20;;;;;;5073894;28;20101;-65
2021/03/15 08:43:31;;;;;;;;;;;9.90;94.00;;;;;;5074109;28;19931;-65
2021/03/15 08:45:59;;;;;;;;;;;9.90;93.90;;;;;;5073924;28;19935;-67
2021/03/15 08:48:44;;;;;;;;;;;9.90;93.90;;;;;;5074028;28;19935;-66
2021/03/15 08:51:11;;;;;;;;;;;9.90;93.80;;;;;;5074216;28;19942;-65
2021/03/15 08:53:48;;;;;;;;;;;9.70;93.70;;;;;;5080996;28;19928;-67
2021/03/15 08:56:33;;;;;;;;;;;9.70;93.90;;;;;;5072335;28;19967;-67
2021/03/15 08:59:00;;;;;;;;;;;9.80;94.00;;;;;;5088651;28;19980;-66
2021/03/15 09:01:28;;;;;;;;;;;9.70;94.00;;;;;;5072347;28;19932;-65
2021/03/15 09:03:58;;;;;;;;;;;9.70;94.20;;;;;;5072597;28;19931;-65
2021/03/15 09:06:43;;;;;;;;;;;9.80;94.30;;;;;;5072039;28;19939;-66
2021/03/15 09:09:11;;;;;;;;;;;9.90;94.20;;;;;;5072791;28;20262;-68
2021/03/15 09:11:48;;;;;;;;;;;9.90;94.30;;;;;;5073207;28;20236;-67
2021/03/15 09:14:34;;;;;;;;;;;10.00;93.90;;;;;;5073148;28;19956;-66
2021/03/15 09:17:22;;;;;;;;;;;10.00;93.70;;;;;;5073469;28;20259;-66
2021/03/15 09:19:49;;;;;;;;;;;10.10;93.50;;;;;;5073063;28;19925;-66
2021/03/15 09:22:22;;;;;;;;;;;10.10;93.10;;;;;;5073355;28;19932;-66
2021/03/15 09:24:50;;;;;;;;;;;10.10;93.20;;;;;;5073121;28;19924;-67
2021/03/15 09:27:26;;;;;;;;;;;10.10;93.10;;;;;;5073004;28;19928;-66
2021/03/15 09:29:54;;;;;;;;;;;10.20;93.10;;;;;;5083186;28;19924;-67
2021/03/15 09:32:26;;;;;;;;;;;10.30;92.90;;;;;;5093543;28;19928;-65
2021/03/15 09:34:53;;;;;;;;;;;10.30;92.60;;;;;;5092972;28;19950;-66
2021/03/15 09:37:19;;;;;;;;;;;10.30;92.70;;;;;;5093401;28;20294;-66
2021/03/15 09:39:46;;;;;;;;;;;10.30;92.90;;;;;;5092680;28;19934;-66
2021/03/15 09:42:12;;;;;;;;;;;10.30;93.20;;;;;;5092889;28;19924;-67
2021/03/15 09:44:42;;;;;;;;;;;10.20;93.00;;;;;;5092045;28;21273;-67
2021/03/15 09:47:08;;;;;;;;;;;10.20;93.10;;;;;;5093389;28;19924;-67
2021/03/15 09:49:36;;;;;;;;;;;10.20;93.20;;;;;;5092504;28;19924;-66
2021/03/15 09:52:10;;;;;;;;;;;10.30;93.00;;;;;;5093287;28;19924;-66
2021/03/15 09:54:39;;;;;;;;;;;10.30;93.10;;;;;;5079340;28;19925;-67
2021/03/15 09:57:06;;;;;;;;;;;10.40;92.80;;;;;;5092037;28;19988;-65
2021/03/15 09:59:32;;;;;;;;;;;10.40;92.80;;;;;;5092443;28;19928;-66
2021/03/15 10:01:58;;;;;;;;;;;10.50;92.50;;;;;;5091714;28;19924;-66
2021/03/15 10:04:31;;;;;;;;;;;10.60;92.60;;;;;;5092467;28;19928;-66
2021/03/15 10:06:57;;;;;;;;;;;10.70;92.60;;;;;;5092504;28;19936;-66
2021/03/15 10:09:24;;;;;;;;;;;10.80;92.40;;;;;;5092211;28;19924;-67
2021/03/15 10:11:51;;;;;;;;;;;10.90;92.40;;;;;;5082480;28;20377;-66
2021/03/15 10:14:17;;;;;;;;;;;11.00;92.20;;;;;;5092796;28;20332;-67
2021/03/15 10:16:51;;;;;;;;;;;10.90;91.90;;;;;;5092264;28;20266;-66
2021/03/15 10:19:20;;;;;;;;;;;10.90;92.00;;;;;;5092605;28;19934;-66
2021/03/15 10:21:47;;;;;;;;;;;11.00;92.00;;;;;;5092458;28;19924;-66
2021/03/15 10:24:13;;;;;;;;;;;11.00;92.00;;;;;;5092734;28;19924;-66
2021/03/15 10:26:41;;;;;;;;;;;11.00;91.80;;;;;;5091994;28;19924;-66
2021/03/15 10:29:08;;;;;;;;;;;11.10;91.40;;;;;;5095339;28;19924;-66
2021/03/15 10:31:38;;;;;;;;;;;11.20;91.20;;;;;;5096521;28;19938;-66
2021/03/15 10:34:07;;;;;;;;;;;11.20;91.30;;;;;;5096788;28;19988;-66
2021/03/15 10:36:34;;;;;;;;;;;11.20;91.10;;;;;;5096397;28;20024;-66
2021/03/15 10:39:00;;;;;;;;;;;11.30;90.90;;;;;;5096037;28;20000;-66
2021/03/15 10:41:26;;;;;;;;;;;11.30;90.90;;;;;;5096468;28;19934;-66
2021/03/15 10:43:54;;;;;;;;;;;11.30;90.70;;;;;;5095879;28;19935;-67
2021/03/15 10:46:22;;;;;;;;;;;11.30;91.00;;;;;;5096388;28;19928;-67
2021/03/15 10:48:48;;;;;;;;;;;11.20;91.20;;;;;;5095545;28;20355;-67
2021/03/15 10:51:15;;;;;;;;;;;11.30;91.30;;;;;;5096140;28;19934;-67
2021/03/15 10:53:45;;;;;;;;;;;11.30;91.30;;;;;;5094843;28;19943;-67
2021/03/15 10:56:15;;;;;;;;;;;11.40;91.20;;;;;;5085910;28;20033;-66
2021/03/15 10:58:42;;;;;;;;;;;11.50;90.80;;;;;;5095555;28;19935;-66
2021/03/15 11:01:12;;;;;;;;;;;11.50;90.80;;;;;;5096134;28;19971;-66
2021/03/15 11:03:40;;;;;;;;;;;11.50;90.40;;;;;;5095694;28;20007;-66
2021/03/15 11:06:06;;;;;;;;;;;11.40;90.30;;;;;;5095629;28;20402;-67
2021/03/15 11:08:33;;;;;;;;;;;11.50;90.00;;;;;;5095934;28;20011;-66
2021/03/15 11:11:15;;;;;;;;;;;11.40;89.80;;;;;;5095529;28;19930;-67
2021/03/15 11:13:42;;;;;;;;;;;11.40;89.90;;;;;;5082848;28;19962;-67
2021/03/15 11:16:16;;;;;;;;;;;11.30;90.10;;;;;;5095811;28;19924;-67
2021/03/15 11:18:42;;;;;;;;;;;11.20;90.10;;;;;;5095348;28;19928;-67
2021/03/15 11:21:10;;;;;;;;;;;11.20;90.40;;;;;;5095457;28;20373;-67
2021/03/15 11:23:37;;;;;;;;;;;11.10;90.60;;;;;;5095723;28;20410;-68
2021/03/15 11:26:05;;;;;;;;;;;11.00;91.30;;;;;;5095473;28;20723;-67
2021/03/15 11:28:32;;;;;;;;;;;11.00;92.00;;;;;;5095522;28;19928;-67
2021/03/15 11:30:59;;;;;;;;;;;11.00;92.80;;;;;;5094937;28;19936;-67
2021/03/15 11:33:28;;;;;;;;;;;10.90;92.70;;;;;;5095698;28;20364;-67
2021/03/15 11:35:54;;;;;;;;;;;10.90;92.60;;;;;;5094824;28;19924;-67
2021/03/15 11:38:21;;;;;;;;;;;11.00;92.40;;;;;;5095580;28;20376;-67
2021/03/15 11:40:48;;;;;;;;;;;11.00;92.20;;;;;;5093550;28;19924;-66
2021/03/15 11:43:14;;;;;;;;;;;11.00;92.20;;;;;;5095514;28;19924;-66
2021/03/15 11:45:41;;;;;;;;;;;11.10;92.50;;;;;;5086099;28;20000;-67
2021/03/15 11:48:08;;;;;;;;;;;11.20;92.20;;;;;;5094838;28;19924;-67
2021/03/15 11:50:36;;;;;;;;;;;11.20;92.20;;;;;;5094608;28;19924;-67
2021/03/15 11:53:03;;;;;;;;;;;11.30;91.60;;;;;;5093644;28;20347;-67
2021/03/15 11:55:30;;;;;;;;;;;11.30;91.70;;;;;;5092333;28;20346;-65
2021/03/15 11:57:56;;;;;;;;;;;11.40;91.40;;;;;;5094271;28;19988;-66
2021/03/15 12:00:26;;;;;;;;;;;11.40;91.70;;;;;;5095255;28;20285;-65
2021/03/15 12:02:53;;;;;;;;;;;11.40;92.10;;;;;;5089829;28;20355;-66
2021/03/15 12:05:20;;;;;;;;;;;11.50;92.10;;;;;;5094612;28;19971;-66
2021/03/15 12:07:47;;;;;;;;;;;11.60;92.00;;;;;;5094531;28;19935;-66
2021/03/15 12:10:14;;;;;;;;;;;11.60;91.80;;;;;;5094725;28;19925;-66
2021/03/15 12:12:40;;;;;;;;;;;11.70;91.40;;;;;;5094778;28;19924;-66
2021/03/15 12:15:08;;;;;;;;;;;11.70;91.30;;;;;;5094570;28;19942;-66
2021/03/15 12:17:34;;;;;;;;;;;11.80;90.60;;;;;;5094481;28;19924;-67
2021/03/15 12:20:01;;;;;;;;;;;11.80;90.30;;;;;;5092248;28;19924;-66
2021/03/15 12:22:27;;;;;;;;;;;11.80;89.10;;;;;;5094688;28;19928;-67
2021/03/15 12:24:54;;;;;;;;;;;11.80;89.10;;;;;;5094078;28;19928;-67
2021/03/15 12:27:21;;;;;;;;;;;11.90;88.20;;;;;;5094409;28;20366;-66
2021/03/15 12:29:47;;;;;;;;;;;11.80;87.70;;;;;;5093895;28;19924;-67
2021/03/15 12:32:13;;;;;;;;;;;11.90;86.60;;;;;;5094482;28;19924;-67
2021/03/15 12:34:40;;;;;;;;;;;11.90;85.70;;;;;;5094424;28;19928;-67
2021/03/15 12:37:06;;;;;;;;;;;11.90;85.50;;;;;;5093956;28;19974;-67
2021/03/15 12:39:33;;;;;;;;;;;11.90;85.60;;;;;;5094356;28;19942;-67
2021/03/15 12:42:00;;;;;;;;;;;11.80;85.10;;;;;;5093855;28;19924;-67
2021/03/15 12:44:26;;;;;;;;;;;11.70;85.60;;;;;;5094132;28;19924;-67
2021/03/15 12:46:52;;;;;;;;;;;11.70;87.40;;;;;;5093670;28;19927;-67
2021/03/15 12:49:19;;;;;;;;;;;11.60;89.90;;;;;;5094111;28;19928;-67
2021/03/15 12:51:45;;;;;;;;;;;11.50;90.90;;;;;;5093306;28;20391;-67
2021/03/15 12:54:11;;;;;;;;;;;11.40;91.80;;;;;;5088641;28;19924;-67
2021/03/15 12:56:38;;;;;;;;;;;11.30;92.00;;;;;;5093930;28;19924;-67
2021/03/15 12:59:05;;;;;;;;;;;11.30;92.00;;;;;;5093481;28;19943;-67
2021/03/15 13:01:31;;;;;;;;;;;11.30;91.90;;;;;;5094150;28;20004;-67
2021/03/15 13:03:57;;;;;;;;;;;11.30;92.30;;;;;;5093218;28;20004;-67
2021/03/15 13:06:24;;;;;;;;;;;11.30;91.70;;;;;;5093627;28;19924;-67
2021/03/15 13:08:50;;;;;;;;;;;11.30;91.60;;;;;;5093331;28;19930;-67
2021/03/15 13:11:16;;;;;;;;;;;11.30;91.60;;;;;;5093922;28;19924;-67
2021/03/15 13:13:43;;;;;;;;;;;11.30;91.60;;;;;;5093210;28;19924;-67
2021/03/15 13:16:10;;;;;;;;;;;11.30;91.80;;;;;;5093155;28;20015;-67
2021/03/15 13:18:36;;;;;;;;;;;11.30;91.70;;;;;;5088757;28;19928;-67
2021/03/15 13:21:03;;;;;;;;;;;11.30;91.20;;;;;;5088477;28;19946;-67
2021/03/15 13:23:29;;;;;;;;;;;11.30;91.30;;;;;;5092101;28;20362;-67
2021/03/15 13:25:56;;;;;;;;;;;11.30;91.30;;;;;;5092806;28;19939;-67
2021/03/15 13:28:22;;;;;;;;;;;11.30;91.30;;;;;;5093203;28;19928;-67
2021/03/15 13:30:48;;;;;;;;;;;11.30;91.40;;;;;;5086896;28;19924;-67
2021/03/15 13:33:15;;;;;;;;;;;11.40;91.30;;;;;;5093163;28;19924;-67
2021/03/15 13:35:42;;;;;;;;;;;11.40;91.20;;;;;;5093339;28;20349;-67
2021/03/15 13:38:09;;;;;;;;;;;11.40;91.30;;;;;;5092470;28;20294;-67
2021/03/15 13:40:35;;;;;;;;;;;11.40;90.80;;;;;;5092916;28;19939;-68
2021/03/15 13:43:02;;;;;;;;;;;11.50;90.70;;;;;;5092819;28;19946;-66
2021/03/15 13:45:28;;;;;;;;;;;11.40;91.00;;;;;;5093055;28;19942;-67
2021/03/15 13:47:54;;;;;;;;;;;11.40;91.20;;;;;;5092385;28;19962;-67
2021/03/15 13:50:21;;;;;;;;;;;11.30;91.40;;;;;;5085982;28;19936;-67
2021/03/15 13:52:48;;;;;;;;;;;11.30;91.60;;;;;;5084525;28;19954;-66
2021/03/15 13:55:14;;;;;;;;;;;11.30;91.80;;;;;;5087128;28;19924;-66
2021/03/15 13:57:41;;;;;;;;;;;11.30;92.00;;;;;;5092573;28;19927;-66
2021/03/15 14:00:08;;;;;;;;;;;11.30;92.10;;;;;;5091984;28;19928;-67
2021/03/15 14:02:34;;;;;;;;;;;11.40;92.20;;;;;;5091862;28;19924;-67
2021/03/15 14:05:01;;;;;;;;;;;11.30;92.20;;;;;;5092323;28;19934;-67
2021/03/15 14:07:28;;;;;;;;;;;11.40;92.40;;;;;;5092173;28;19935;-67
2021/03/15 14:09:54;;;;;;;;;;;11.40;92.40;;;;;;5092200;28;19924;-67
2021/03/15 14:12:20;;;;;;;;;;;11.20;92.00;;;;;;5092248;28;19955;-67
2021/03/15 14:14:46;;;;;;;;;;;11.10;92.30;;;;;;5092286;28;19934;-67
2021/03/15 14:17:13;;;;;;;;;;;11.10;92.40;;;;;;5091428;28;19933;-66
2021/03/15 14:19:41;;;;;;;;;;;11.10;92.40;;;;;;5090790;28;19935;-66
2021/03/15 14:22:08;;;;;;;;;;;11.10;92.50;;;;;;5087509;28;19928;-67
2021/03/15 14:24:35;;;;;;;;;;;11.10;92.50;;;;;;5092523;28;19924;-69
2021/03/15 14:27:01;;;;;;;;;;;11.10;92.50;;;;;;5091788;28;19934;-68
2021/03/15 14:29:27;;;;;;;;;;;11.10;92.50;;;;;;5092734;28;19924;-69
2021/03/15 14:31:54;;;;;;;;;;;11.10;92.60;;;;;;5092196;28;19932;-66